createdAt,value
2019-04-16T00:00:26.160Z,43.17
2019-04-16T00:03:20.193Z,41.83
2019-04-16T00:06:18.265Z,42.70
2019-04-16T00:09:18.695Z,41.00
2019-04-16T00:12:25.781Z,44.33
2019-04-16T00:15:18.502Z,46.33
2019-04-16T00:18:09.849Z,43.00
2019-04-16T00:21:19.310Z,44.27
2019-04-16T00:24:19.548Z,39.30
2019-04-16T00:27:12.061Z,40.87
2019-04-16T00:30:05.585Z,42.30
2019-04-16T00:32:57.078Z,37.67
2019-04-16T00:35:48.669Z,40.50
2019-04-16T00:38:41.210Z,40.10
2019-04-16T00:41:33.786Z,43.10
2019-04-16T00:44:25.380Z,46.87
2019-04-16T00:47:16.777Z,45.83
2019-04-16T00:50:09.340Z,38.77
2019-04-16T00:53:00.530Z,45.13
2019-04-16T00:55:52.121Z,45.47
2019-04-16T00:58:43.873Z,46.27
2019-04-16T01:01:35.370Z,42.40
2019-04-16T01:04:26.747Z,47.93
2019-04-16T01:07:18.346Z,45.20
2019-04-16T01:10:10.276Z,44.30
2019-04-16T01:26:09.209Z,43.00
2019-04-16T01:29:15.535Z,46.00
2019-04-16T01:32:24.944Z,49.37
2019-04-16T01:35:34.245Z,49.87
2019-04-16T01:38:34.032Z,48.70
2019-04-16T01:41:25.525Z,47.20
2019-04-16T01:44:16.969Z,39.00
2019-04-16T01:47:08.423Z,42.37
2019-04-16T01:49:59.699Z,51.07
2019-04-16T01:52:51.268Z,46.33
2019-04-16T01:55:42.964Z,44.83
2019-04-16T01:58:34.678Z,42.10
2019-04-16T02:01:26.417Z,44.30
2019-04-16T02:04:19.915Z,48.07
2019-04-16T02:07:11.234Z,41.73
2019-04-16T02:10:06.386Z,44.03
2019-04-16T02:12:56.045Z,41.03
2019-04-16T02:15:47.510Z,45.90
2019-04-16T02:18:39.148Z,43.40
2019-04-16T02:21:30.730Z,40.10
2019-04-16T02:24:22.094Z,40.27
2019-04-16T02:27:13.499Z,42.00
2019-04-16T02:30:05.925Z,41.97
2019-04-16T02:32:57.918Z,44.40
2019-04-16T02:35:49.211Z,44.90
2019-04-16T02:38:46.296Z,39.47
2019-04-16T02:41:33.738Z,46.47
2019-04-16T02:44:25.041Z,47.07
2019-04-16T02:47:16.441Z,41.53
2019-04-16T02:50:11.399Z,42.30
2019-04-16T02:53:25.325Z,43.53
2019-04-16T02:56:35.243Z,46.00
2019-04-16T02:59:29.817Z,40.53
2019-04-16T03:02:33.952Z,42.27
2019-04-16T03:05:31.568Z,41.67
2019-04-16T03:08:23.074Z,48.87
2019-04-16T03:11:17.075Z,43.90
2019-04-16T03:14:07.687Z,48.53
2019-04-16T03:17:30.534Z,52.87
2019-04-16T03:20:23.988Z,43.63
2019-04-16T03:23:14.711Z,44.73
2019-04-16T03:26:06.132Z,41.83
2019-04-16T03:28:59.233Z,39.87
2019-04-16T03:31:57.465Z,45.43
2019-04-16T03:34:43.794Z,40.67
2019-04-16T03:37:35.087Z,42.93
2019-04-16T03:40:26.720Z,42.27
2019-04-16T03:43:18.411Z,52.57
2019-04-16T03:46:13.006Z,41.17
2019-04-16T03:49:03.053Z,51.20
2019-04-16T03:51:54.813Z,46.90
2019-04-16T03:54:46.167Z,47.00
2019-04-16T03:57:38.953Z,46.47
2019-04-16T04:00:30.526Z,41.90
2019-04-16T04:03:25.832Z,44.87
2019-04-16T04:06:15.025Z,44.13
2019-04-16T04:09:07.885Z,47.37
2019-04-16T04:11:59.711Z,47.57
2019-04-16T04:14:54.106Z,48.57
2019-04-16T04:17:44.509Z,47.10
2019-04-16T04:20:36.185Z,49.33
2019-04-16T04:23:28.697Z,49.17
2019-04-16T04:26:20.958Z,46.33
2019-04-16T04:29:12.560Z,49.03
2019-04-16T04:32:04.399Z,56.33
2019-04-16T04:34:55.986Z,51.37
2019-04-16T04:37:47.251Z,44.77
2019-04-16T04:40:44.693Z,45.13
2019-04-16T04:43:32.019Z,44.60
2019-04-16T04:46:24.093Z,44.10
2019-04-16T04:49:15.583Z,53.23
2019-04-16T04:52:07.122Z,50.17
2019-04-16T04:54:58.785Z,44.23
2019-04-16T04:57:50.037Z,48.83
2019-04-16T05:00:41.344Z,52.43
2019-04-16T05:03:50.723Z,48.70
2019-04-16T05:06:42.793Z,47.83
2019-04-16T05:09:36.418Z,47.77
2019-04-16T05:12:27.533Z,58.30
2019-04-16T05:15:18.912Z,54.23
2019-04-16T05:18:10.943Z,49.27
2019-04-16T05:21:02.454Z,49.23
2019-04-16T05:23:56.784Z,51.27
2019-04-16T05:26:46.749Z,45.43
2019-04-16T05:29:38.798Z,54.47
2019-04-16T05:32:33.953Z,45.97
2019-04-16T05:35:23.596Z,55.13
2019-04-16T05:38:15.028Z,47.50
2019-04-16T05:41:12.978Z,50.97
2019-04-16T05:44:01.760Z,53.47
2019-04-16T05:46:52.793Z,54.43
2019-04-16T05:49:44.386Z,46.10
2019-04-16T05:52:36.687Z,45.17
2019-04-16T05:55:36.897Z,55.57
2019-04-16T05:58:30.839Z,52.73
2019-04-16T06:01:42.378Z,46.00
2019-04-16T06:04:34.001Z,40.50
2019-04-16T06:07:26.048Z,53.03
2019-04-16T06:10:18.966Z,51.67
2019-04-16T06:13:29.586Z,46.07
2019-04-16T06:16:31.166Z,42.10
2019-04-16T06:19:33.106Z,41.03
2019-04-16T06:22:50.077Z,41.33
2019-04-16T06:25:48.983Z,38.87
2019-04-16T06:29:14.522Z,38.20
2019-04-16T06:32:34.027Z,41.00
2019-04-16T06:35:43.957Z,37.83
2019-04-16T06:38:40.703Z,38.77
2019-04-16T06:41:52.656Z,38.27
2019-04-16T06:44:55.190Z,41.53
2019-04-16T06:47:56.718Z,37.33
2019-04-16T06:51:13.290Z,36.43
2019-04-16T06:54:32.866Z,36.00
2019-04-16T06:57:46.592Z,32.50
2019-04-16T07:00:55.854Z,37.10
2019-04-16T07:03:58.234Z,35.13
2019-04-16T07:07:08.002Z,31.53
2019-04-16T07:10:04.689Z,30.33
2019-04-16T07:12:56.429Z,34.33
2019-04-16T07:15:48.124Z,39.87
2019-04-16T07:18:39.588Z,33.83
2019-04-16T07:21:31.558Z,31.57
2019-04-16T07:24:23.936Z,39.50
2019-04-16T07:27:19.583Z,31.47
2019-04-16T07:30:14.549Z,35.70
2019-04-16T07:33:20.662Z,30.97
2019-04-16T07:36:27.771Z,34.23
2019-04-16T07:39:47.277Z,35.50
2019-04-16T07:43:46.966Z,35.27
2019-04-16T07:46:00.113Z,31.03
2019-04-16T07:49:29.126Z,32.87
2019-04-16T07:52:33.330Z,30.70
2019-04-16T07:55:36.865Z,29.70
2019-04-16T07:58:28.135Z,30.77
2019-04-16T08:01:19.536Z,28.33
2019-04-16T08:04:11.892Z,35.07
2019-04-16T08:07:03.534Z,29.40
2019-04-16T08:09:55.275Z,24.37
2019-04-16T08:12:50.524Z,30.17
2019-04-16T08:15:42.314Z,29.43
2019-04-16T08:18:35.575Z,35.00
2019-04-16T08:21:27.087Z,34.00
2019-04-16T08:24:25.435Z,25.70
2019-04-16T08:27:19.133Z,32.53
2019-04-16T08:30:13.486Z,28.03
2019-04-16T08:33:05.444Z,32.57
2019-04-16T08:35:56.791Z,31.10
2019-04-16T08:38:48.374Z,28.90
2019-04-16T08:41:40.359Z,27.23
2019-04-16T08:44:35.293Z,27.10
2019-04-16T08:47:25.780Z,31.30
2019-04-16T08:50:18.061Z,28.87
2019-04-16T08:53:13.283Z,28.70
2019-04-16T08:56:02.698Z,30.03
2019-04-16T08:58:58.359Z,29.33
2019-04-16T09:01:47.306Z,31.77
2019-04-16T09:04:38.629Z,32.10
2019-04-16T09:07:39.981Z,28.10
2019-04-16T09:10:32.751Z,34.77
2019-04-16T09:13:28.117Z,30.00
2019-04-16T09:16:20.629Z,29.57
2019-04-16T09:19:14.703Z,25.70
2019-04-16T09:22:06.823Z,29.87
2019-04-16T09:25:13.866Z,32.53
2019-04-16T09:28:25.708Z,31.03
2019-04-16T09:31:31.046Z,27.17
2019-04-16T09:34:39.623Z,28.30
2019-04-16T09:37:51.724Z,30.87
2019-04-16T09:40:54.477Z,31.13
2019-04-16T09:43:50.043Z,29.77
2019-04-16T09:46:59.395Z,28.47
2019-04-16T09:49:37.616Z,38.23
2019-04-16T09:52:28.404Z,30.33
2019-04-16T09:55:19.770Z,27.87
2019-04-16T09:58:22.151Z,31.97
2019-04-16T10:01:13.090Z,31.00
2019-04-16T10:04:04.734Z,27.83
2019-04-16T10:06:56.150Z,27.63
2019-04-16T10:09:47.448Z,29.37
2019-04-16T10:12:38.742Z,28.80
2019-04-16T10:15:30.674Z,29.70
2019-04-16T10:18:22.032Z,34.30
2019-04-16T10:21:18.786Z,29.33
2019-04-16T10:24:30.208Z,28.27
2019-04-16T10:27:42.921Z,30.40
2019-04-16T10:30:39.179Z,31.80
2019-04-16T10:33:30.583Z,26.77
2019-04-16T10:36:22.034Z,26.07
2019-04-16T10:39:26.296Z,29.63
2019-04-16T10:42:52.253Z,33.33
2019-04-16T10:45:58.716Z,29.80
2019-04-16T10:49:08.237Z,26.67
2019-04-16T10:52:22.412Z,25.83
2019-04-16T10:55:39.319Z,34.47
2019-04-16T10:58:39.242Z,28.43
2019-04-16T11:01:45.344Z,31.33
2019-04-16T11:04:55.648Z,31.90
2019-04-16T11:07:49.231Z,35.17
2019-04-16T11:10:41.237Z,34.47
2019-04-16T11:13:41.348Z,44.77
2019-04-16T11:16:35.892Z,35.57
2019-04-16T11:19:26.950Z,30.50
2019-04-16T11:22:18.410Z,27.83
2019-04-16T11:25:10.094Z,27.30
2019-04-16T11:28:01.686Z,35.53
2019-04-16T11:30:56.173Z,33.23
2019-04-16T11:33:47.714Z,34.13
2019-04-16T11:36:39.410Z,28.57
2019-04-16T11:39:31.086Z,27.80
2019-04-16T11:42:23.042Z,31.67
2019-04-16T11:45:15.676Z,31.80
2019-04-16T11:48:07.824Z,33.70
2019-04-16T11:50:59.291Z,29.93
2019-04-16T11:53:50.634Z,35.40
2019-04-16T11:56:44.415Z,31.90
2019-04-16T11:59:38.233Z,34.77
2019-04-16T12:02:48.053Z,31.33
2019-04-16T12:05:55.141Z,28.80
2019-04-16T12:09:04.411Z,33.93
2019-04-16T12:12:04.817Z,28.60
2019-04-16T12:15:18.428Z,27.97
2019-04-16T12:18:27.140Z,32.30
2019-04-16T12:21:37.435Z,32.60
2019-04-16T12:24:50.472Z,45.43
2019-04-16T12:27:49.986Z,39.07
2019-04-16T12:31:00.541Z,37.70
2019-04-16T12:33:59.399Z,33.53
2019-04-16T12:37:10.046Z,37.00
2019-04-16T12:40:21.167Z,47.53
2019-04-16T12:43:20.988Z,35.77
2019-04-16T12:46:37.589Z,43.80
2019-04-16T12:49:55.024Z,38.67
2019-04-16T12:53:07.905Z,32.67
2019-04-16T12:56:24.206Z,34.23
2019-04-16T12:59:22.056Z,36.87
2019-04-16T13:02:20.771Z,32.83
2019-04-16T13:05:21.219Z,37.67
2019-04-16T13:08:31.016Z,38.87
2019-04-16T13:11:31.967Z,37.27
2019-04-16T13:15:02.647Z,41.87
2019-04-16T13:18:34.040Z,35.90
2019-04-16T13:21:49.509Z,34.30
2019-04-16T13:24:46.615Z,32.53
2019-04-16T13:27:39.230Z,36.57
2019-04-16T13:30:30.767Z,34.90
2019-04-16T13:33:22.983Z,40.00
2019-04-16T13:36:15.009Z,35.47
2019-04-16T13:39:24.072Z,37.43
2019-04-16T13:42:15.443Z,42.37
2019-04-16T13:45:21.654Z,39.03
2019-04-16T13:48:29.320Z,36.73
2019-04-16T13:51:23.884Z,40.30
2019-04-16T13:54:28.173Z,38.37
2019-04-16T13:57:21.452Z,40.47
2019-04-16T14:00:28.599Z,40.67
2019-04-16T14:03:20.872Z,35.17
2019-04-16T14:06:13.597Z,33.27
2019-04-16T14:09:07.924Z,38.17
2019-04-16T14:11:59.610Z,40.07
2019-04-16T14:14:52.204Z,39.57
2019-04-16T14:17:52.434Z,40.67
2019-04-16T14:20:36.813Z,40.63
2019-04-16T14:23:28.466Z,39.93
2019-04-16T14:26:19.855Z,36.90
2019-04-16T14:29:11.207Z,36.37
2019-04-16T14:32:03.359Z,41.00
2019-04-16T14:35:08.332Z,40.63
2019-04-16T14:38:00.023Z,35.57
2019-04-16T14:40:51.507Z,34.97
2019-04-16T14:43:45.499Z,34.17
2019-04-16T14:46:37.170Z,34.30
2019-04-16T14:49:29.329Z,37.73
2019-04-16T14:52:20.830Z,33.17
2019-04-16T14:55:22.614Z,38.17
2019-04-16T14:58:24.717Z,32.63
2019-04-16T15:01:29.107Z,32.00
2019-04-16T15:04:43.886Z,32.80
2019-04-16T15:08:03.903Z,32.47
2019-04-16T15:11:29.976Z,31.90
2019-04-16T15:14:26.812Z,33.47
2019-04-16T15:17:46.214Z,31.30
2019-04-16T15:21:10.216Z,29.50
2019-04-16T15:24:07.342Z,28.50
2019-04-16T15:27:13.560Z,33.27
2019-04-16T15:30:28.281Z,34.57
2019-04-16T15:33:23.758Z,40.53
2019-04-16T15:36:37.093Z,35.27
2019-04-16T15:39:35.312Z,40.23
2019-04-16T15:42:48.458Z,34.80
2019-04-16T15:46:09.495Z,37.00
2019-04-16T15:49:05.266Z,34.33
2019-04-16T15:52:09.551Z,37.03
2019-04-16T15:55:06.948Z,33.77
2019-04-16T15:58:32.318Z,36.30
2019-04-16T16:01:40.353Z,39.40
2019-04-16T16:04:41.832Z,34.53
2019-04-16T16:07:42.231Z,34.37
2019-04-16T16:10:45.131Z,37.10
2019-04-16T16:13:34.102Z,36.07
2019-04-16T16:16:40.573Z,31.17
2019-04-16T16:19:18.340Z,36.97
2019-04-16T16:22:11.912Z,32.33
2019-04-16T16:25:05.660Z,32.13
2019-04-16T16:27:56.332Z,31.43
2019-04-16T16:30:47.709Z,40.73
2019-04-16T16:33:38.987Z,37.83
2019-04-16T16:36:30.285Z,36.27
2019-04-16T16:39:21.855Z,30.87
2019-04-16T16:42:13.482Z,33.93
2019-04-16T16:45:07.502Z,35.40
2019-04-16T16:47:58.847Z,33.27
2019-04-16T16:50:51.762Z,37.37
2019-04-16T16:53:54.557Z,39.37
2019-04-16T16:56:52.739Z,42.23
2019-04-16T16:59:54.375Z,40.03
2019-04-16T17:02:52.962Z,37.23
2019-04-16T17:05:44.791Z,38.97
2019-04-16T17:08:37.529Z,39.77
2019-04-16T17:11:29.128Z,38.87
2019-04-16T17:14:20.935Z,40.27
2019-04-16T17:17:14.919Z,43.80
2019-04-16T17:20:06.434Z,39.53
2019-04-16T17:22:57.954Z,39.17
2019-04-16T17:25:50.160Z,40.93
2019-04-16T17:28:43.418Z,39.70
2019-04-16T17:31:36.174Z,41.80
2019-04-16T17:34:28.041Z,36.37
2019-04-16T17:37:20.840Z,41.57
2019-04-16T17:40:18.060Z,42.77
2019-04-16T17:43:18.007Z,49.73
2019-04-16T17:46:28.636Z,47.27
2019-04-16T17:49:41.921Z,57.43
2019-04-16T17:52:43.365Z,45.20
2019-04-16T17:56:08.204Z,46.10
2019-04-16T17:59:06.371Z,49.10
2019-04-16T18:02:25.017Z,50.90
2019-04-16T18:05:30.778Z,47.70
2019-04-16T18:08:47.204Z,50.93
2019-04-16T18:12:04.109Z,47.03
2019-04-16T18:15:00.739Z,58.50
2019-04-16T18:18:01.568Z,61.30
2019-04-16T18:21:04.977Z,65.60
2019-04-16T18:24:14.392Z,55.60
2019-04-16T18:27:43.901Z,53.77
2019-04-16T18:30:54.437Z,54.30
2019-04-16T18:34:05.107Z,48.50
2019-04-16T18:37:08.758Z,51.60
2019-04-16T18:40:13.682Z,49.90
2019-04-16T18:43:36.418Z,51.17
2019-04-16T18:46:38.027Z,51.97
2019-04-16T18:49:29.843Z,50.87
2019-04-16T18:52:21.977Z,50.67
2019-04-16T18:55:14.411Z,50.73
2019-04-16T18:58:05.931Z,52.80
2019-04-16T19:01:01.899Z,52.93
2019-04-16T19:03:54.732Z,50.17
2019-04-16T19:06:46.980Z,65.87
2019-04-16T19:09:38.684Z,60.00
2019-04-16T19:12:30.455Z,65.30
2019-04-16T19:15:22.072Z,60.40
2019-04-16T19:18:19.799Z,55.63
2019-04-16T19:21:06.895Z,59.60
2019-04-16T19:23:58.572Z,58.80
2019-04-16T19:26:50.242Z,67.37
2019-04-16T19:29:42.840Z,59.93
2019-04-16T19:32:35.185Z,80.43
2019-04-16T19:35:27.938Z,91.63
2019-04-16T19:38:20.252Z,60.70
2019-04-16T19:41:11.921Z,69.23
2019-04-16T19:44:07.251Z,68.23
2019-04-16T19:46:56.658Z,63.40
2019-04-16T19:49:48.769Z,62.07
2019-04-16T19:52:40.640Z,75.27
2019-04-16T19:55:32.376Z,65.27
2019-04-16T19:58:24.061Z,71.57
2019-04-16T20:01:15.945Z,66.80
2019-04-16T20:04:10.694Z,67.13
2019-04-16T20:07:01.950Z,69.93
2019-04-16T20:09:53.863Z,62.73
2019-04-16T20:12:45.595Z,67.20
2019-04-16T20:15:37.157Z,70.87
2019-04-16T20:18:31.795Z,71.37
2019-04-16T20:21:23.445Z,69.33
2019-04-16T20:24:14.793Z,77.93
2019-04-16T20:27:06.974Z,73.67
2019-04-16T20:29:59.541Z,80.03
2019-04-16T20:32:52.207Z,76.83
2019-04-16T20:35:43.845Z,77.47
2019-04-16T20:38:35.375Z,83.10
2019-04-16T20:41:27.052Z,71.63
2019-04-16T20:44:18.421Z,77.07
2019-04-16T20:47:10.691Z,84.10
2019-04-16T20:50:04.747Z,83.47
2019-04-16T20:52:55.736Z,76.17
2019-04-16T20:55:48.142Z,74.63
2019-04-16T20:58:39.666Z,74.07
2019-04-16T21:01:35.487Z,85.10
2019-04-16T21:04:24.911Z,78.70
2019-04-16T21:07:16.493Z,77.57
2019-04-16T21:10:08.148Z,77.57
2019-04-16T21:12:59.824Z,77.63
2019-04-16T21:15:51.171Z,77.60
2019-04-16T21:18:42.588Z,80.30
2019-04-16T21:21:37.901Z,80.53
2019-04-16T21:24:27.214Z,77.40
2019-04-16T21:27:18.470Z,83.90
2019-04-16T21:30:13.114Z,79.83
2019-04-16T21:33:17.694Z,82.90
2019-04-16T21:36:11.368Z,85.60
2019-04-16T21:39:33.795Z,94.97
2019-04-16T21:42:25.124Z,86.10
2019-04-16T21:45:17.132Z,90.13
2019-04-16T21:48:12.406Z,87.27
2019-04-16T21:51:02.782Z,86.30
2019-04-16T21:53:57.344Z,88.97
2019-04-16T21:56:47.145Z,85.13
2019-04-16T21:59:38.562Z,80.30
2019-04-16T22:02:37.281Z,82.77
2019-04-16T22:05:27.606Z,84.93
2019-04-16T22:08:19.484Z,81.10
2019-04-16T22:11:11.785Z,79.43
2019-04-16T22:14:04.900Z,85.07
2019-04-16T22:17:02.531Z,80.03
2019-04-16T22:19:54.477Z,83.77
2019-04-16T22:22:43.687Z,83.80
2019-04-16T22:25:36.145Z,89.77
2019-04-16T22:28:28.509Z,84.63
2019-04-16T22:31:20.794Z,92.30
2019-04-16T22:34:13.487Z,88.87
2019-04-16T22:37:05.164Z,97.80
2019-04-16T22:40:13.758Z,93.80
2019-04-16T22:43:24.208Z,104.87
2019-04-16T22:46:21.084Z,102.90
2019-04-16T22:49:12.746Z,104.67
2019-04-16T22:52:03.952Z,98.87
2019-04-16T22:54:55.330Z,101.10
2019-04-16T22:57:47.058Z,113.50
2019-04-16T23:00:44.381Z,112.03
2019-04-16T23:03:35.971Z,115.70
2019-04-16T23:06:27.527Z,114.67
2019-04-16T23:09:20.081Z,125.77
2019-04-16T23:12:11.619Z,122.20
2019-04-16T23:15:04.858Z,126.53
2019-04-16T23:17:57.192Z,129.50
2019-04-16T23:20:48.845Z,133.23
2019-04-16T23:23:40.340Z,130.30
2019-04-16T23:26:33.296Z,133.03
2019-04-16T23:29:25.786Z,133.87
2019-04-16T23:32:17.059Z,133.73
2019-04-16T23:35:10.781Z,129.60
2019-04-16T23:38:02.575Z,133.63
2019-04-16T23:40:54.969Z,128.67
2019-04-16T23:44:04.968Z,128.07
2019-04-16T23:47:24.351Z,133.37
2019-04-16T23:50:44.929Z,136.30
2019-04-16T23:53:39.044Z,125.67
2019-04-16T23:56:49.757Z,138.67
2019-04-16T23:59:54.331Z,129.70
